Terminal Aerodrome Forecast
Issued by NWS

Home | Current Version | Previous Version | Text Only | Print | Product List | Glossary On
Versions: 1 2 3 4 5 6 7 8 9 10 11 12 13 14 15 16 17 18
000
FTUS46 KSTO 301100 RRA
TAFSCK
TAF
KSCK 301147Z 3012/3112 00000KT 1SM BR SKC
      TEMPO 3014/3016 1/2SM FG VV003
     FM301800 31006KT 6SM HZ SKC
     FM302200 31010G17KT P6SM FEW150
     FM310200 28005KT P6SM SKC=

USA.gov is the U.S. government's official web portal to all federal, state and local government web resources and services.